< < Back
Terminal Aerodrome Forecast


Current Version              Previous Versions:   1  2  3  4  5  6  7  8  9  

Terminal Aerodrome Forecast

231
FTUS42 KJAX 121721
TAFSSI
TAF
KSSI 121721Z 1218/1318 24012G20KT P6SM FEW025
     FM130000 26008KT P6SM SCT250
     FM130700 32010KT P6SM SKC
     FM131500 35012G20KT P6SM SKC=

Latest METAR

298
SAUS70 KWBC 130200 RRD
MTRSSI
METAR KSSI 130153Z AUTO 24005KT 10SM FEW065 17/12 A3008 RMK AO2 SLP186
T01720117 $


USA.gov is the U.S. government's official web portal to all federal, state and local government web resources and services.